sensor_id;sensor_type;location;lat;lon;timestamp;P1;durP1;ratioP1;P2;durP2;ratioP2
75189;SDS011;69198;44.694;37.790;2024-03-06T00:00:41;23.55;;;8.90;;
75189;SDS011;69198;44.694;37.790;2024-03-06T00:01:42;24.92;;;9.32;;
75189;SDS011;69198;44.694;37.790;2024-03-06T00:02:43;23.90;;;8.38;;
75189;SDS011;69198;44.694;37.790;2024-03-06T00:03:45;26.88;;;10.43;;
75189;SDS011;69198;44.694;37.790;2024-03-06T00:04:45;22.08;;;8.70;;
75189;SDS011;69198;44.694;37.790;2024-03-06T00:05:47;22.40;;;8.70;;
75189;SDS011;69198;44.694;37.790;2024-03-06T00:06:48;24.88;;;8.80;;
75189;SDS011;69198;44.694;37.790;2024-03-06T00:07:52;22.10;;;9.13;;
75189;SDS011;69198;44.694;37.790;2024-03-06T00:08:53;22.42;;;9.05;;
75189;SDS011;69198;44.694;37.790;2024-03-06T00:09:54;26.65;;;9.10;;
75189;SDS011;69198;44.694;37.790;2024-03-06T00:10:55;23.58;;;9.38;;
75189;SDS011;69198;44.694;37.790;2024-03-06T00:11:57;22.42;;;9.10;;
75189;SDS011;69198;44.694;37.790;2024-03-06T00:12:58;25.83;;;10.00;;
75189;SDS011;69198;44.694;37.790;2024-03-06T00:13:59;24.83;;;9.13;;
75189;SDS011;69198;44.694;37.790;2024-03-06T00:15:03;24.20;;;9.00;;
75189;SDS011;69198;44.694;37.790;2024-03-06T00:16:05;24.00;;;8.82;;
75189;SDS011;69198;44.694;37.790;2024-03-06T00:17:06;23.30;;;8.93;;
75189;SDS011;69198;44.694;37.790;2024-03-06T00:18:07;21.98;;;8.88;;
75189;SDS011;69198;44.694;37.790;2024-03-06T00:19:08;27.42;;;9.65;;
75189;SDS011;69198;44.694;37.790;2024-03-06T00:20:09;21.60;;;8.82;;
75189;SDS011;69198;44.694;37.790;2024-03-06T00:21:11;22.00;;;9.15;;
75189;SDS011;69198;44.694;37.790;2024-03-06T00:22:12;24.77;;;9.70;;
75189;SDS011;69198;44.694;37.790;2024-03-06T00:23:13;27.20;;;9.13;;
75189;SDS011;69198;44.694;37.790;2024-03-06T00:24:14;25.37;;;9.20;;
75189;SDS011;69198;44.694;37.790;2024-03-06T00:25:16;22.95;;;9.40;;
75189;SDS011;69198;44.694;37.790;2024-03-06T00:26:17;22.02;;;8.93;;
75189;SDS011;69198;44.694;37.790;2024-03-06T00:27:18;20.80;;;8.45;;
75189;SDS011;69198;44.694;37.790;2024-03-06T00:28:22;27.85;;;8.82;;
75189;SDS011;69198;44.694;37.790;2024-03-06T00:29:24;24.15;;;9.02;;
75189;SDS011;69198;44.694;37.790;2024-03-06T00:30:25;23.67;;;8.40;;
75189;SDS011;69198;44.694;37.790;2024-03-06T00:31:27;25.13;;;9.45;;
75189;SDS011;69198;44.694;37.790;2024-03-06T00:32:28;25.27;;;9.43;;
75189;SDS011;69198;44.694;37.790;2024-03-06T00:33:29;25.73;;;9.30;;
75189;SDS011;69198;44.694;37.790;2024-03-06T00:34:30;22.77;;;8.82;;
75189;SDS011;69198;44.694;37.790;2024-03-06T00:35:31;26.48;;;8.73;;
75189;SDS011;69198;44.694;37.790;2024-03-06T00:36:32;21.90;;;8.50;;
75189;SDS011;69198;44.694;37.790;2024-03-06T00:37:33;21.90;;;9.63;;
75189;SDS011;69198;44.694;37.790;2024-03-06T00:38:34;21.85;;;8.50;;
75189;SDS011;69198;44.694;37.790;2024-03-06T00:39:35;22.90;;;9.00;;
75189;SDS011;69198;44.694;37.790;2024-03-06T00:40:36;26.08;;;9.40;;
75189;SDS011;69198;44.694;37.790;2024-03-06T00:41:37;22.77;;;9.23;;
75189;SDS011;69198;44.694;37.790;2024-03-06T00:42:38;23.05;;;9.35;;
75189;SDS011;69198;44.694;37.790;2024-03-06T00:43:41;21.63;;;8.88;;
75189;SDS011;69198;44.694;37.790;2024-03-06T00:44:42;22.77;;;9.43;;
75189;SDS011;69198;44.694;37.790;2024-03-06T00:45:43;25.00;;;9.32;;
75189;SDS011;69198;44.694;37.790;2024-03-06T00:46:44;24.87;;;8.93;;
75189;SDS011;69198;44.694;37.790;2024-03-06T00:47:45;23.58;;;9.27;;
75189;SDS011;69198;44.694;37.790;2024-03-06T00:48:46;24.52;;;8.52;;
75189;SDS011;69198;44.694;37.790;2024-03-06T00:49:47;24.92;;;9.05;;
75189;SDS011;69198;44.694;37.790;2024-03-06T00:50:48;23.77;;;8.52;;
75189;SDS011;69198;44.694;37.790;2024-03-06T00:51:49;21.63;;;9.25;;
75189;SDS011;69198;44.694;37.790;2024-03-06T00:52:50;24.45;;;8.60;;
75189;SDS011;69198;44.694;37.790;2024-03-06T00:53:51;25.20;;;9.23;;
75189;SDS011;69198;44.694;37.790;2024-03-06T00:54:52;19.88;;;8.43;;
75189;SDS011;69198;44.694;37.790;2024-03-06T00:55:53;21.75;;;8.90;;
75189;SDS011;69198;44.694;37.790;2024-03-06T00:56:54;22.75;;;9.00;;
75189;SDS011;69198;44.694;37.790;2024-03-06T00:57:55;23.58;;;9.23;;
75189;SDS011;69198;44.694;37.790;2024-03-06T00:58:56;23.60;;;8.85;;
75189;SDS011;69198;44.694;37.790;2024-03-06T00:59:57;24.40;;;8.60;;
75189;SDS011;69198;44.694;37.790;2024-03-06T01:00:58;24.77;;;9.07;;
75189;SDS011;69198;44.694;37.790;2024-03-06T01:01:59;24.55;;;9.18;;
75189;SDS011;69198;44.694;37.790;2024-03-06T01:03:00;23.87;;;8.73;;
75189;SDS011;69198;44.694;37.790;2024-03-06T01:04:01;27.08;;;9.77;;
75189;SDS011;69198;44.694;37.790;2024-03-06T01:05:03;25.55;;;9.20;;
75189;SDS011;69198;44.694;37.790;2024-03-06T01:06:04;26.52;;;9.23;;
75189;SDS011;69198;44.694;37.790;2024-03-06T01:07:05;25.63;;;9.43;;
75189;SDS011;69198;44.694;37.790;2024-03-06T01:08:06;23.23;;;8.80;;
75189;SDS011;69198;44.694;37.790;2024-03-06T01:09:07;25.52;;;9.68;;
75189;SDS011;69198;44.694;37.790;2024-03-06T01:10:08;24.30;;;9.90;;
75189;SDS011;69198;44.694;37.790;2024-03-06T01:11:11;26.17;;;9.50;;
75189;SDS011;69198;44.694;37.790;2024-03-06T01:12:14;23.77;;;8.73;;
75189;SDS011;69198;44.694;37.790;2024-03-06T01:13:16;24.00;;;8.57;;
75189;SDS011;69198;44.694;37.790;2024-03-06T01:14:17;22.58;;;9.15;;
75189;SDS011;69198;44.694;37.790;2024-03-06T01:15:18;25.42;;;9.07;;
75189;SDS011;69198;44.694;37.790;2024-03-06T01:16:19;26.85;;;9.45;;
75189;SDS011;69198;44.694;37.790;2024-03-06T01:17:21;25.58;;;9.23;;
75189;SDS011;69198;44.694;37.790;2024-03-06T01:18:22;24.23;;;9.13;;
75189;SDS011;69198;44.694;37.790;2024-03-06T01:19:23;23.65;;;8.80;;
75189;SDS011;69198;44.694;37.790;2024-03-06T01:20:24;22.87;;;9.20;;
75189;SDS011;69198;44.694;37.790;2024-03-06T01:21:27;23.65;;;9.38;;
75189;SDS011;69198;44.694;37.790;2024-03-06T01:22:29;24.90;;;9.07;;
75189;SDS011;69198;44.694;37.790;2024-03-06T01:23:30;25.23;;;9.75;;
75189;SDS011;69198;44.694;37.790;2024-03-06T01:24:31;22.75;;;9.13;;
75189;SDS011;69198;44.694;37.790;2024-03-06T01:25:32;26.67;;;9.25;;
75189;SDS011;69198;44.694;37.790;2024-03-06T01:26:33;25.67;;;9.30;;
75189;SDS011;69198;44.694;37.790;2024-03-06T01:27:34;31.65;;;9.70;;
75189;SDS011;69198;44.694;37.790;2024-03-06T01:28:35;25.50;;;9.70;;
75189;SDS011;69198;44.694;37.790;2024-03-06T01:29:37;21.70;;;8.88;;
75189;SDS011;69198;44.694;37.790;2024-03-06T01:30:38;26.13;;;9.03;;
75189;SDS011;69198;44.694;37.790;2024-03-06T01:31:39;23.20;;;9.63;;
75189;SDS011;69198;44.694;37.790;2024-03-06T01:32:40;25.15;;;9.82;;
75189;SDS011;69198;44.694;37.790;2024-03-06T01:33:41;22.80;;;8.88;;
75189;SDS011;69198;44.694;37.790;2024-03-06T01:34:42;22.58;;;8.65;;
75189;SDS011;69198;44.694;37.790;2024-03-06T01:35:43;26.83;;;9.85;;
75189;SDS011;69198;44.694;37.790;2024-03-06T01:36:44;25.25;;;9.73;;
75189;SDS011;69198;44.694;37.790;2024-03-06T01:37:45;23.77;;;9.02;;
75189;SDS011;69198;44.694;37.790;2024-03-06T01:38:46;28.20;;;10.20;;
75189;SDS011;69198;44.694;37.790;2024-03-06T01:39:47;24.20;;;9.25;;
75189;SDS011;69198;44.694;37.790;2024-03-06T01:40:48;24.70;;;9.43;;
75189;SDS011;69198;44.694;37.790;2024-03-06T01:41:50;24.35;;;9.70;;
75189;SDS011;69198;44.694;37.790;2024-03-06T01:42:51;27.35;;;9.68;;
75189;SDS011;69198;44.694;37.790;2024-03-06T01:43:52;25.75;;;10.32;;
75189;SDS011;69198;44.694;37.790;2024-03-06T01:44:53;24.40;;;9.60;;
75189;SDS011;69198;44.694;37.790;2024-03-06T01:45:54;24.93;;;9.73;;
75189;SDS011;69198;44.694;37.790;2024-03-06T01:46:55;27.52;;;9.45;;
75189;SDS011;69198;44.694;37.790;2024-03-06T01:47:56;27.45;;;9.25;;
75189;SDS011;69198;44.694;37.790;2024-03-06T01:48:57;25.35;;;8.77;;
75189;SDS011;69198;44.694;37.790;2024-03-06T01:49:59;24.55;;;10.02;;
75189;SDS011;69198;44.694;37.790;2024-03-06T01:51:01;27.13;;;10.13;;
75189;SDS011;69198;44.694;37.790;2024-03-06T01:52:05;26.50;;;10.18;;
75189;SDS011;69198;44.694;37.790;2024-03-06T01:53:07;25.07;;;9.30;;
75189;SDS011;69198;44.694;37.790;2024-03-06T01:54:09;26.35;;;10.00;;
75189;SDS011;69198;44.694;37.790;2024-03-06T01:55:11;22.48;;;9.10;;
75189;SDS011;69198;44.694;37.790;2024-03-06T01:56:13;22.85;;;9.23;;
75189;SDS011;69198;44.694;37.790;2024-03-06T01:57:17;25.55;;;8.77;;
75189;SDS011;69198;44.694;37.790;2024-03-06T01:58:20;26.48;;;8.93;;
75189;SDS011;69198;44.694;37.790;2024-03-06T01:59:21;26.55;;;9.52;;
75189;SDS011;69198;44.694;37.790;2024-03-06T02:00:26;28.40;;;9.63;;
75189;SDS011;69198;44.694;37.790;2024-03-06T02:01:28;26.67;;;9.30;;
75189;SDS011;69198;44.694;37.790;2024-03-06T02:02:29;23.73;;;9.32;;
75189;SDS011;69198;44.694;37.790;2024-03-06T02:03:34;25.73;;;9.50;;
75189;SDS011;69198;44.694;37.790;2024-03-06T02:04:35;26.80;;;9.63;;
75189;SDS011;69198;44.694;37.790;2024-03-06T02:05:36;25.02;;;9.70;;
75189;SDS011;69198;44.694;37.790;2024-03-06T02:06:40;23.40;;;9.77;;
75189;SDS011;69198;44.694;37.790;2024-03-06T02:07:42;24.75;;;9.50;;
75189;SDS011;69198;44.694;37.790;2024-03-06T02:08:45;25.23;;;9.43;;
75189;SDS011;69198;44.694;37.790;2024-03-06T02:09:47;24.75;;;8.90;;
75189;SDS011;69198;44.694;37.790;2024-03-06T02:10:49;26.83;;;9.68;;
75189;SDS011;69198;44.694;37.790;2024-03-06T02:11:50;28.42;;;9.63;;
75189;SDS011;69198;44.694;37.790;2024-03-06T02:12:51;26.80;;;9.83;;
75189;SDS011;69198;44.694;37.790;2024-03-06T02:13:53;25.57;;;9.57;;
75189;SDS011;69198;44.694;37.790;2024-03-06T02:14:54;27.35;;;9.82;;
75189;SDS011;69198;44.694;37.790;2024-03-06T02:15:55;29.20;;;9.98;;
75189;SDS011;69198;44.694;37.790;2024-03-06T02:16:56;24.88;;;9.88;;
75189;SDS011;69198;44.694;37.790;2024-03-06T02:17:57;22.38;;;8.88;;
75189;SDS011;69198;44.694;37.790;2024-03-06T02:18:58;24.45;;;9.48;;
75189;SDS011;69198;44.694;37.790;2024-03-06T02:19:59;24.83;;;9.03;;
75189;SDS011;69198;44.694;37.790;2024-03-06T02:21:00;24.87;;;9.23;;
75189;SDS011;69198;44.694;37.790;2024-03-06T02:22:01;26.77;;;9.15;;
75189;SDS011;69198;44.694;37.790;2024-03-06T02:23:03;25.70;;;10.20;;
75189;SDS011;69198;44.694;37.790;2024-03-06T02:24:04;25.02;;;9.70;;
75189;SDS011;69198;44.694;37.790;2024-03-06T02:25:05;24.90;;;9.13;;
75189;SDS011;69198;44.694;37.790;2024-03-06T02:26:07;27.02;;;9.75;;
75189;SDS011;69198;44.694;37.790;2024-03-06T02:27:08;23.08;;;9.38;;
75189;SDS011;69198;44.694;37.790;2024-03-06T02:28:09;21.80;;;8.93;;
75189;SDS011;69198;44.694;37.790;2024-03-06T02:29:10;27.87;;;9.60;;
75189;SDS011;69198;44.694;37.790;2024-03-06T02:30:11;24.55;;;8.68;;
75189;SDS011;69198;44.694;37.790;2024-03-06T02:31:12;23.50;;;8.52;;
75189;SDS011;69198;44.694;37.790;2024-03-06T02:32:13;23.05;;;9.38;;
75189;SDS011;69198;44.694;37.790;2024-03-06T02:33:14;25.00;;;9.50;;
75189;SDS011;69198;44.694;37.790;2024-03-06T02:34:15;26.17;;;9.23;;
75189;SDS011;69198;44.694;37.790;2024-03-06T02:35:17;26.90;;;9.45;;
75189;SDS011;69198;44.694;37.790;2024-03-06T02:36:18;23.52;;;9.23;;
75189;SDS011;69198;44.694;37.790;2024-03-06T02:37:19;24.20;;;9.68;;
75189;SDS011;69198;44.694;37.790;2024-03-06T02:38:20;26.60;;;9.70;;
75189;SDS011;69198;44.694;37.790;2024-03-06T02:39:21;25.73;;;9.20;;
75189;SDS011;69198;44.694;37.790;2024-03-06T02:40:23;22.52;;;9.40;;
75189;SDS011;69198;44.694;37.790;2024-03-06T02:41:24;28.60;;;10.73;;
75189;SDS011;69198;44.694;37.790;2024-03-06T02:42:24;24.13;;;9.73;;
75189;SDS011;69198;44.694;37.790;2024-03-06T02:43:26;23.77;;;9.45;;
75189;SDS011;69198;44.694;37.790;2024-03-06T02:44:27;27.20;;;10.38;;
75189;SDS011;69198;44.694;37.790;2024-03-06T02:45:28;26.30;;;9.77;;
75189;SDS011;69198;44.694;37.790;2024-03-06T02:46:29;22.95;;;8.77;;
75189;SDS011;69198;44.694;37.790;2024-03-06T02:47:30;22.55;;;8.90;;
75189;SDS011;69198;44.694;37.790;2024-03-06T02:48:31;26.80;;;9.85;;
75189;SDS011;69198;44.694;37.790;2024-03-06T02:49:32;22.73;;;9.75;;
75189;SDS011;69198;44.694;37.790;2024-03-06T02:50:33;25.73;;;9.30;;
75189;SDS011;69198;44.694;37.790;2024-03-06T02:51:34;23.05;;;9.32;;
75189;SDS011;69198;44.694;37.790;2024-03-06T02:52:35;24.00;;;9.77;;
75189;SDS011;69198;44.694;37.790;2024-03-06T02:53:36;25.58;;;9.60;;
75189;SDS011;69198;44.694;37.790;2024-03-06T02:54:37;29.00;;;10.00;;
75189;SDS011;69198;44.694;37.790;2024-03-06T02:55:41;26.30;;;9.73;;
75189;SDS011;69198;44.694;37.790;2024-03-06T02:56:42;25.58;;;10.20;;
75189;SDS011;69198;44.694;37.790;2024-03-06T02:57:43;26.55;;;8.98;;
75189;SDS011;69198;44.694;37.790;2024-03-06T02:58:44;42.42;;;9.90;;
75189;SDS011;69198;44.694;37.790;2024-03-06T02:59:45;25.88;;;9.20;;
75189;SDS011;69198;44.694;37.790;2024-03-06T03:00:46;26.23;;;10.07;;
75189;SDS011;69198;44.694;37.790;2024-03-06T03:01:48;24.63;;;9.73;;
75189;SDS011;69198;44.694;37.790;2024-03-06T03:02:49;25.63;;;8.65;;
75189;SDS011;69198;44.694;37.790;2024-03-06T03:03:50;25.92;;;10.60;;
75189;SDS011;69198;44.694;37.790;2024-03-06T03:04:52;20.13;;;8.35;;
75189;SDS011;69198;44.694;37.790;2024-03-06T03:05:53;25.60;;;9.73;;
75189;SDS011;69198;44.694;37.790;2024-03-06T03:06:54;28.55;;;10.65;;
75189;SDS011;69198;44.694;37.790;2024-03-06T03:07:55;30.17;;;10.83;;
75189;SDS011;69198;44.694;37.790;2024-03-06T03:08:56;29.73;;;12.30;;
75189;SDS011;69198;44.694;37.790;2024-03-06T03:09:56;30.55;;;12.27;;
75189;SDS011;69198;44.694;37.790;2024-03-06T03:10:58;26.75;;;9.88;;
75189;SDS011;69198;44.694;37.790;2024-03-06T03:11:58;26.83;;;10.13;;
75189;SDS011;69198;44.694;37.790;2024-03-06T03:13:00;26.48;;;9.77;;
75189;SDS011;69198;44.694;37.790;2024-03-06T03:14:02;28.75;;;10.18;;
75189;SDS011;69198;44.694;37.790;2024-03-06T03:15:03;24.23;;;9.10;;
75189;SDS011;69198;44.694;37.790;2024-03-06T03:16:04;28.83;;;10.20;;
75189;SDS011;69198;44.694;37.790;2024-03-06T03:17:06;27.40;;;10.02;;
75189;SDS011;69198;44.694;37.790;2024-03-06T03:18:07;21.65;;;9.25;;
75189;SDS011;69198;44.694;37.790;2024-03-06T03:19:08;27.52;;;9.80;;
75189;SDS011;69198;44.694;37.790;2024-03-06T03:20:09;26.77;;;9.88;;
75189;SDS011;69198;44.694;37.790;2024-03-06T03:22:37;27.63;;;9.32;;
75189;SDS011;69198;44.694;37.790;2024-03-06T03:23:39;21.83;;;8.75;;
75189;SDS011;69198;44.694;37.790;2024-03-06T03:24:43;26.65;;;9.93;;
75189;SDS011;69198;44.694;37.790;2024-03-06T03:25:44;22.97;;;9.37;;
75189;SDS011;69198;44.694;37.790;2024-03-06T03:26:46;24.02;;;9.05;;
75189;SDS011;69198;44.694;37.790;2024-03-06T03:27:47;24.42;;;9.30;;
75189;SDS011;69198;44.694;37.790;2024-03-06T03:28:48;26.10;;;9.57;;
75189;SDS011;69198;44.694;37.790;2024-03-06T03:29:49;23.00;;;9.23;;
75189;SDS011;69198;44.694;37.790;2024-03-06T03:30:50;26.02;;;9.68;;
75189;SDS011;69198;44.694;37.790;2024-03-06T03:31:51;27.85;;;9.80;;
75189;SDS011;69198;44.694;37.790;2024-03-06T03:32:53;21.60;;;8.25;;
75189;SDS011;69198;44.694;37.790;2024-03-06T03:33:55;28.73;;;10.32;;
75189;SDS011;69198;44.694;37.790;2024-03-06T03:34:56;24.27;;;9.33;;
75189;SDS011;69198;44.694;37.790;2024-03-06T03:35:57;24.63;;;9.55;;
75189;SDS011;69198;44.694;37.790;2024-03-06T03:36:58;26.35;;;9.90;;
75189;SDS011;69198;44.694;37.790;2024-03-06T03:37:59;24.33;;;9.57;;
75189;SDS011;69198;44.694;37.790;2024-03-06T03:39:00;25.42;;;9.55;;
75189;SDS011;69198;44.694;37.790;2024-03-06T03:40:01;24.52;;;10.13;;
75189;SDS011;69198;44.694;37.790;2024-03-06T03:41:07;25.73;;;9.27;;
75189;SDS011;69198;44.694;37.790;2024-03-06T03:42:13;29.75;;;9.38;;
75189;SDS011;69198;44.694;37.790;2024-03-06T03:43:14;23.80;;;9.50;;
75189;SDS011;69198;44.694;37.790;2024-03-06T03:44:16;24.00;;;9.05;;
75189;SDS011;69198;44.694;37.790;2024-03-06T03:45:21;26.70;;;10.30;;
75189;SDS011;69198;44.694;37.790;2024-03-06T03:46:22;25.40;;;9.93;;
75189;SDS011;69198;44.694;37.790;2024-03-06T03:47:23;25.63;;;9.60;;
75189;SDS011;69198;44.694;37.790;2024-03-06T03:48:24;24.27;;;9.95;;
75189;SDS011;69198;44.694;37.790;2024-03-06T03:49:27;24.85;;;10.27;;
75189;SDS011;69198;44.694;37.790;2024-03-06T03:50:28;29.70;;;10.00;;
75189;SDS011;69198;44.694;37.790;2024-03-06T03:51:29;26.63;;;9.55;;
75189;SDS011;69198;44.694;37.790;2024-03-06T03:52:30;26.23;;;9.93;;
75189;SDS011;69198;44.694;37.790;2024-03-06T03:53:32;27.27;;;10.15;;
75189;SDS011;69198;44.694;37.790;2024-03-06T03:54:33;28.80;;;10.27;;
75189;SDS011;69198;44.694;37.790;2024-03-06T03:55:35;22.98;;;9.30;;
75189;SDS011;69198;44.694;37.790;2024-03-06T03:56:37;28.77;;;9.60;;
75189;SDS011;69198;44.694;37.790;2024-03-06T03:57:38;23.98;;;9.93;;
75189;SDS011;69198;44.694;37.790;2024-03-06T03:58:39;27.40;;;10.00;;
75189;SDS011;69198;44.694;37.790;2024-03-06T03:59:40;24.23;;;10.13;;
75189;SDS011;69198;44.694;37.790;2024-03-06T04:00:41;31.35;;;10.15;;
75189;SDS011;69198;44.694;37.790;2024-03-06T04:01:44;24.55;;;9.68;;
75189;SDS011;69198;44.694;37.790;2024-03-06T04:02:47;26.60;;;10.53;;
75189;SDS011;69198;44.694;37.790;2024-03-06T04:03:48;25.65;;;10.30;;
75189;SDS011;69198;44.694;37.790;2024-03-06T04:04:49;25.95;;;10.30;;
75189;SDS011;69198;44.694;37.790;2024-03-06T04:05:50;30.30;;;10.63;;
75189;SDS011;69198;44.694;37.790;2024-03-06T04:06:51;25.60;;;10.32;;
75189;SDS011;69198;44.694;37.790;2024-03-06T04:07:52;28.65;;;11.00;;
75189;SDS011;69198;44.694;37.790;2024-03-06T04:08:53;26.10;;;10.77;;
75189;SDS011;69198;44.694;37.790;2024-03-06T04:09:54;25.92;;;10.75;;
75189;SDS011;69198;44.694;37.790;2024-03-06T04:10:55;26.83;;;10.57;;
75189;SDS011;69198;44.694;37.790;2024-03-06T04:11:56;27.63;;;10.20;;
75189;SDS011;69198;44.694;37.790;2024-03-06T04:12:58;25.88;;;9.73;;
75189;SDS011;69198;44.694;37.790;2024-03-06T04:14:00;28.60;;;9.82;;
75189;SDS011;69198;44.694;37.790;2024-03-06T04:15:01;27.65;;;10.18;;
75189;SDS011;69198;44.694;37.790;2024-03-06T04:16:02;27.92;;;10.60;;
75189;SDS011;69198;44.694;37.790;2024-03-06T04:17:04;28.17;;;10.43;;
75189;SDS011;69198;44.694;37.790;2024-03-06T04:18:05;26.60;;;10.25;;
75189;SDS011;69198;44.694;37.790;2024-03-06T04:19:07;26.90;;;10.87;;
75189;SDS011;69198;44.694;37.790;2024-03-06T04:20:08;23.15;;;10.18;;
75189;SDS011;69198;44.694;37.790;2024-03-06T04:21:12;32.10;;;11.43;;
75189;SDS011;69198;44.694;37.790;2024-03-06T04:22:16;32.40;;;11.15;;
75189;SDS011;69198;44.694;37.790;2024-03-06T04:23:19;27.77;;;10.60;;
75189;SDS011;69198;44.694;37.790;2024-03-06T04:24:20;28.98;;;10.50;;
75189;SDS011;69198;44.694;37.790;2024-03-06T04:25:21;30.40;;;11.73;;
75189;SDS011;69198;44.694;37.790;2024-03-06T04:26:24;27.98;;;11.65;;
75189;SDS011;69198;44.694;37.790;2024-03-06T04:27:25;29.10;;;11.20;;
75189;SDS011;69198;44.694;37.790;2024-03-06T04:28:26;25.83;;;10.63;;
75189;SDS011;69198;44.694;37.790;2024-03-06T04:29:27;29.52;;;11.65;;
75189;SDS011;69198;44.694;37.790;2024-03-06T04:30:28;26.73;;;10.63;;
75189;SDS011;69198;44.694;37.790;2024-03-06T04:31:29;28.63;;;10.93;;
75189;SDS011;69198;44.694;37.790;2024-03-06T04:32:30;31.60;;;11.23;;
75189;SDS011;69198;44.694;37.790;2024-03-06T04:33:31;25.75;;;10.27;;
75189;SDS011;69198;44.694;37.790;2024-03-06T04:34:32;29.35;;;10.02;;
75189;SDS011;69198;44.694;37.790;2024-03-06T04:35:33;34.33;;;12.27;;
75189;SDS011;69198;44.694;37.790;2024-03-06T04:36:38;30.23;;;11.82;;
75189;SDS011;69198;44.694;37.790;2024-03-06T04:37:39;31.35;;;11.73;;
75189;SDS011;69198;44.694;37.790;2024-03-06T04:38:40;28.05;;;11.07;;
75189;SDS011;69198;44.694;37.790;2024-03-06T04:39:41;28.80;;;10.73;;
75189;SDS011;69198;44.694;37.790;2024-03-06T04:40:42;27.67;;;11.45;;
75189;SDS011;69198;44.694;37.790;2024-03-06T04:41:43;29.30;;;12.00;;
75189;SDS011;69198;44.694;37.790;2024-03-06T04:42:47;26.57;;;10.77;;
75189;SDS011;69198;44.694;37.790;2024-03-06T04:43:52;28.48;;;11.57;;
75189;SDS011;69198;44.694;37.790;2024-03-06T04:44:53;25.27;;;10.63;;
75189;SDS011;69198;44.694;37.790;2024-03-06T04:45:54;28.20;;;11.73;;
75189;SDS011;69198;44.694;37.790;2024-03-06T04:46:55;31.48;;;12.55;;
75189;SDS011;69198;44.694;37.790;2024-03-06T04:47:56;37.05;;;11.45;;
75189;SDS011;69198;44.694;37.790;2024-03-06T04:48:57;28.65;;;11.15;;
75189;SDS011;69198;44.694;37.790;2024-03-06T04:49:58;28.08;;;10.93;;
75189;SDS011;69198;44.694;37.790;2024-03-06T04:50:59;30.90;;;11.53;;
75189;SDS011;69198;44.694;37.790;2024-03-06T04:52:00;27.10;;;11.10;;
75189;SDS011;69198;44.694;37.790;2024-03-06T04:53:01;30.02;;;11.68;;
75189;SDS011;69198;44.694;37.790;2024-03-06T04:54:05;29.10;;;11.15;;
75189;SDS011;69198;44.694;37.790;2024-03-06T04:55:10;25.80;;;10.85;;
75189;SDS011;69198;44.694;37.790;2024-03-06T04:56:11;26.95;;;10.93;;
75189;SDS011;69198;44.694;37.790;2024-03-06T04:57:13;27.73;;;11.02;;
75189;SDS011;69198;44.694;37.790;2024-03-06T04:58:14;28.40;;;11.40;;
75189;SDS011;69198;44.694;37.790;2024-03-06T04:59:22;26.30;;;10.35;;
75189;SDS011;69198;44.694;37.790;2024-03-06T05:00:23;27.70;;;10.85;;
75189;SDS011;69198;44.694;37.790;2024-03-06T05:01:25;28.00;;;10.52;;
75189;SDS011;69198;44.694;37.790;2024-03-06T05:02:25;25.53;;;10.07;;
75189;SDS011;69198;44.694;37.790;2024-03-06T05:03:26;31.33;;;12.00;;
75189;SDS011;69198;44.694;37.790;2024-03-06T05:04:27;30.13;;;11.02;;
75189;SDS011;69198;44.694;37.790;2024-03-06T05:05:28;25.65;;;10.75;;
75189;SDS011;69198;44.694;37.790;2024-03-06T05:06:30;26.20;;;11.10;;
75189;SDS011;69198;44.694;37.790;2024-03-06T05:07:31;35.38;;;12.98;;
75189;SDS011;69198;44.694;37.790;2024-03-06T05:08:32;25.58;;;10.55;;
75189;SDS011;69198;44.694;37.790;2024-03-06T05:09:33;26.77;;;11.43;;
75189;SDS011;69198;44.694;37.790;2024-03-06T05:10:35;31.70;;;11.25;;
75189;SDS011;69198;44.694;37.790;2024-03-06T05:11:36;25.70;;;10.27;;
75189;SDS011;69198;44.694;37.790;2024-03-06T05:12:39;28.42;;;11.02;;
75189;SDS011;69198;44.694;37.790;2024-03-06T05:13:42;28.08;;;11.73;;
75189;SDS011;69198;44.694;37.790;2024-03-06T05:14:43;30.30;;;11.43;;
75189;SDS011;69198;44.694;37.790;2024-03-06T05:15:44;25.80;;;11.57;;
75189;SDS011;69198;44.694;37.790;2024-03-06T05:16:45;27.13;;;11.37;;
75189;SDS011;69198;44.694;37.790;2024-03-06T05:17:46;28.00;;;11.05;;
75189;SDS011;69198;44.694;37.790;2024-03-06T05:18:47;26.02;;;10.93;;
75189;SDS011;69198;44.694;37.790;2024-03-06T05:19:49;30.92;;;12.18;;
75189;SDS011;69198;44.694;37.790;2024-03-06T05:20:50;27.48;;;11.65;;
75189;SDS011;69198;44.694;37.790;2024-03-06T05:21:51;30.40;;;12.60;;
75189;SDS011;69198;44.694;37.790;2024-03-06T05:22:52;29.48;;;11.48;;
75189;SDS011;69198;44.694;37.790;2024-03-06T05:23:55;30.80;;;12.50;;
75189;SDS011;69198;44.694;37.790;2024-03-06T05:24:57;28.58;;;11.32;;
75189;SDS011;69198;44.694;37.790;2024-03-06T05:25:59;27.73;;;11.50;;
75189;SDS011;69198;44.694;37.790;2024-03-06T05:27:00;32.03;;;11.95;;
75189;SDS011;69198;44.694;37.790;2024-03-06T05:28:01;23.65;;;10.93;;
75189;SDS011;69198;44.694;37.790;2024-03-06T05:29:02;26.80;;;11.68;;
75189;SDS011;69198;44.694;37.790;2024-03-06T05:30:03;26.00;;;11.15;;
75189;SDS011;69198;44.694;37.790;2024-03-06T05:31:15;27.52;;;11.10;;
75189;SDS011;69198;44.694;37.790;2024-03-06T05:32:20;27.77;;;11.68;;
75189;SDS011;69198;44.694;37.790;2024-03-06T05:33:21;24.77;;;10.65;;
75189;SDS011;69198;44.694;37.790;2024-03-06T05:34:22;29.70;;;11.63;;
75189;SDS011;69198;44.694;37.790;2024-03-06T05:35:23;30.95;;;11.57;;
75189;SDS011;69198;44.694;37.790;2024-03-06T05:36:25;26.63;;;11.48;;
75189;SDS011;69198;44.694;37.790;2024-03-06T05:37:26;27.77;;;11.40;;
75189;SDS011;69198;44.694;37.790;2024-03-06T05:38:29;26.50;;;10.80;;
75189;SDS011;69198;44.694;37.790;2024-03-06T05:39:30;29.25;;;11.18;;
75189;SDS011;69198;44.694;37.790;2024-03-06T05:40:32;30.60;;;12.00;;
75189;SDS011;69198;44.694;37.790;2024-03-06T05:41:43;27.60;;;11.52;;
75189;SDS011;69198;44.694;37.790;2024-03-06T05:42:44;26.70;;;11.20;;
75189;SDS011;69198;44.694;37.790;2024-03-06T05:43:45;26.75;;;9.95;;
75189;SDS011;69198;44.694;37.790;2024-03-06T05:44:46;30.47;;;10.97;;
75189;SDS011;69198;44.694;37.790;2024-03-06T05:45:49;26.98;;;11.07;;
75189;SDS011;69198;44.694;37.790;2024-03-06T05:46:50;25.52;;;11.48;;
75189;SDS011;69198;44.694;37.790;2024-03-06T05:47:51;31.38;;;11.60;;
75189;SDS011;69198;44.694;37.790;2024-03-06T05:48:52;25.88;;;10.95;;
75189;SDS011;69198;44.694;37.790;2024-03-06T05:49:53;26.88;;;10.68;;
75189;SDS011;69198;44.694;37.790;2024-03-06T05:50:54;25.00;;;11.25;;
75189;SDS011;69198;44.694;37.790;2024-03-06T05:51:58;31.17;;;12.40;;
75189;SDS011;69198;44.694;37.790;2024-03-06T05:52:59;27.20;;;11.30;;
75189;SDS011;69198;44.694;37.790;2024-03-06T05:54:00;28.93;;;11.40;;
75189;SDS011;69198;44.694;37.790;2024-03-06T05:55:01;26.50;;;11.40;;
75189;SDS011;69198;44.694;37.790;2024-03-06T05:56:04;28.17;;;11.35;;
75189;SDS011;69198;44.694;37.790;2024-03-06T05:57:06;27.13;;;11.45;;
75189;SDS011;69198;44.694;37.790;2024-03-06T05:58:07;25.17;;;10.63;;
75189;SDS011;69198;44.694;37.790;2024-03-06T05:59:08;25.60;;;11.23;;